West Branch, Iowa
Current Conditions -  °F | °C
As of 7:52 AM on Friday 28 Nov 2014 (Local Time) from KIOW Reporting Station
Scattered Clouds Scattered Clouds  
Wind Chill: -15°   Ceiling: Unl
Heat Index: -8°   Visibility: 10mi
Dew Point: -12°   Wind: 9mph
Humidity: 77%   Direction: 130°SE
Pressure: 30.1"   Gusts: NA
Location:  41.67°N, 91.35°W
Report Text: KIOW 281352Z AUTO 13008KT 10SM SCT120 M08/M12 A3010 RMK AO2 SLP207 T10831117
Loading
Personal Weather Stations






























Interactive Weather Map New forecast layout! Learn more

10-Day Weather Forecast

Advertisements
Track Severe Weather on mobile